Time;durP1;ratioP1;P1;durP2;ratioP2;P2;SDS_P1;SDS_P2;PMS_P1;PMS_P2;Temp;Humidity;BMP_temperature;BMP_pressure;BME280_temperature;BME280_humidity;BME280_pressure;Samples;Min_cycle;Max_cycle;Signal;HPM_P1;HPM_P2
2022/12/26 00:01:30;;;;;;;91.63;39.38;;;;;;;8.09;100.00;100856.38;5125206;27;20390;-75
2022/12/26 00:03:56;;;;;;;90.30;39.47;;;;;;;8.08;100.00;100858.13;5124729;27;20354;-75
2022/12/26 00:06:24;;;;;;;92.80;38.75;;;;;;;8.08;100.00;100871.31;5124109;27;20125;-76
2022/12/26 00:08:50;;;;;;;88.20;38.97;;;;;;;8.10;100.00;100863.41;5125642;27;20030;-76
2022/12/26 00:11:16;;;;;;;95.63;40.10;;;;;;;8.10;100.00;100863.41;5123089;27;20039;-75
2022/12/26 00:13:42;;;;;;;92.55;41.08;;;;;;;8.10;100.00;100859.03;5126414;27;20035;-76
2022/12/26 00:16:07;;;;;;;92.18;39.95;;;;;;;8.12;100.00;100870.44;5122895;27;20471;-76
2022/12/26 00:18:33;;;;;;;92.43;40.45;;;;;;;8.13;100.00;100866.09;5125479;27;20028;-76
2022/12/26 00:20:58;;;;;;;96.35;42.00;;;;;;;8.14;100.00;100874.00;5124282;27;20023;-76
2022/12/26 00:23:23;;;;;;;99.05;43.13;;;;;;;8.16;100.00;100877.53;5123642;27;20114;-75
2022/12/26 00:25:49;;;;;;;100.45;41.75;;;;;;;8.15;100.00;100895.97;5107229;27;20103;-75
2022/12/26 00:28:14;;;;;;;98.38;42.65;;;;;;;8.15;100.00;100888.94;5122498;27;20023;-75
2022/12/26 00:30:40;;;;;;;107.32;43.72;;;;;;;8.15;100.00;100888.94;5107620;27;20032;-71
2022/12/26 00:33:05;;;;;;;104.80;43.17;;;;;;;8.14;100.00;100897.72;5123298;27;20448;-69
2022/12/26 00:35:30;;;;;;;110.80;45.08;;;;;;;8.12;100.00;100895.91;5124464;27;20051;-72
2022/12/26 00:37:56;;;;;;;106.95;44.38;;;;;;;8.13;100.00;100909.09;5124492;27;20038;-72
2022/12/26 00:40:21;;;;;;;106.68;46.53;;;;;;;8.13;100.00;100916.13;5123643;27;20051;-73
2022/12/26 00:42:46;;;;;;;106.70;45.58;;;;;;;8.12;100.00;100903.81;5125377;27;20027;-72
2022/12/26 00:45:12;;;;;;;101.15;44.35;;;;;;;8.09;100.00;100898.50;5103986;28;20033;-72
2022/12/26 00:47:37;;;;;;;98.00;44.08;;;;;;;8.09;100.00;100898.50;5125808;27;20038;-72
2022/12/26 00:50:03;;;;;;;95.95;44.28;;;;;;;8.08;100.00;100896.72;5123019;27;20564;-72
2022/12/26 00:52:28;;;;;;;102.80;44.13;;;;;;;8.06;100.00;100903.72;5124076;27;20435;-72
2022/12/26 00:54:53;;;;;;;98.88;44.33;;;;;;;8.05;100.00;100908.09;5124628;27;20031;-71
2022/12/26 00:57:19;;;;;;;95.63;43.60;;;;;;;8.05;100.00;100912.47;5122555;27;20027;-73
2022/12/26 00:59:44;;;;;;;101.25;44.00;;;;;;;8.05;100.00;100907.22;5125205;27;20071;-72
2022/12/26 01:02:36;;;;;;;105.07;46.30;;;;;;;8.06;100.00;100914.25;5117688;27;20103;-73
2022/12/26 01:04:55;;;;;;;109.65;44.50;;;;;;;8.01;100.00;100904.53;5121087;27;20474;-72
2022/12/26 01:07:20;;;;;;;103.20;44.50;;;;;;;7.99;100.00;100890.47;5124808;27;20075;-71
2022/12/26 01:09:45;;;;;;;103.88;44.38;;;;;;;7.98;100.00;100899.22;5122025;27;20482;-76
2022/12/26 01:12:11;;;;;;;105.30;45.03;;;;;;;7.95;100.00;100911.44;5125149;27;20031;-76
2022/12/26 01:14:36;;;;;;;99.68;43.38;;;;;;;7.91;100.00;100935.97;5122523;27;20116;-75
2022/12/26 01:17:01;;;;;;;100.57;43.30;;;;;;;7.93;100.00;100926.34;5124242;27;20094;-75
2022/12/26 01:19:27;;;;;;;96.35;42.13;;;;;;;7.91;100.00;100934.19;5123400;28;20042;-75
2022/12/26 01:21:52;;;;;;;99.68;44.85;;;;;;;7.90;100.00;100937.69;5123085;28;20035;-75
2022/12/26 01:24:17;;;;;;;107.45;45.70;;;;;;;7.88;100.00;100927.97;5124880;28;20089;-75
2022/12/26 01:26:43;;;;;;;106.85;44.97;;;;;;;7.89;100.00;100917.47;5103635;28;20032;-75
2022/12/26 01:29:08;;;;;;;107.18;46.25;;;;;;;7.90;100.00;100911.38;5106552;28;20019;-72
2022/12/26 01:31:34;;;;;;;112.72;46.22;;;;;;;7.88;100.00;100909.56;5122701;28;20152;-75
2022/12/26 01:33:59;;;;;;;107.88;44.20;;;;;;;7.89;100.00;100922.75;5123489;28;20044;-76
2022/12/26 01:36:24;;;;;;;111.57;46.85;;;;;;;7.88;100.00;100928.91;5105532;28;20076;-76
2022/12/26 01:38:50;;;;;;;109.70;44.65;;;;;;;7.88;100.00;100921.00;5122236;28;20027;-75
2022/12/26 01:41:15;;;;;;;107.05;44.78;;;;;;;7.88;100.00;100920.09;5124944;28;20114;-75
2022/12/26 01:43:50;;;;;;;103.15;44.20;;;;;;;7.89;100.00;100920.13;5121886;28;20169;-75
2022/12/26 01:46:18;;;;;;;99.63;43.35;;;;;;;7.83;100.00;100928.81;5118152;28;20028;-75
2022/12/26 01:48:45;;;;;;;90.38;41.35;;;;;;;7.74;100.00;100925.13;5125003;28;20480;-75
2022/12/26 01:51:11;;;;;;;85.43;39.88;;;;;;;7.73;100.00;100926.00;5117259;28;20038;-75
2022/12/26 01:53:44;;;;;;;85.68;39.53;;;;;;;7.75;100.00;100924.28;5124515;28;20065;-73
2022/12/26 01:56:20;;;;;;;79.00;39.05;;;;;;;7.75;100.00;100926.91;5121267;28;20066;-74
2022/12/26 01:58:52;;;;;;;77.57;37.72;;;;;;;7.67;100.00;100930.31;5118257;28;20023;-73
2022/12/26 02:01:20;;;;;;;73.70;37.05;;;;;;;7.60;100.00;100931.06;5124374;28;20497;-73
2022/12/26 02:06:33;;;;;;;73.45;36.80;;;;;;;7.56;100.00;100923.97;5123088;28;20443;-73
2022/12/26 02:08:59;;;;;;;67.68;36.03;;;;;;;7.57;100.00;100909.94;5123045;28;20023;-73
2022/12/26 02:11:33;;;;;;;69.10;35.63;;;;;;;7.59;100.00;100933.66;5125672;27;20114;-74
2022/12/26 02:14:00;;;;;;;65.25;35.03;;;;;;;7.60;100.00;100930.13;5127460;27;20045;-72
2022/12/26 02:16:26;;;;;;;70.30;36.38;;;;;;;7.64;100.00;100932.84;5127042;27;20083;-73
2022/12/26 02:18:51;;;;;;;65.85;35.25;;;;;;;7.64;100.00;100934.59;5125875;27;20118;-76
2022/12/26 02:21:32;;;;;;;60.13;33.88;;;;;;;7.67;100.00;100942.56;5128404;27;20023;-72
2022/12/26 02:24:03;;;;;;;62.30;34.17;;;;;;;7.74;100.00;100941.81;5126578;27;20048;-73
2022/12/26 02:26:47;;;;;;;59.67;33.78;;;;;;;7.74;100.00;100936.53;5126485;27;20019;-73
2022/12/26 02:29:43;;;;;;;59.63;33.45;;;;;;;7.75;100.00;100940.94;5120914;27;20028;-73
2022/12/26 02:32:53;;;;;;;60.20;34.35;;;;;;;7.74;100.00;100930.41;5128205;27;20365;-73
2022/12/26 02:35:50;;;;;;;57.63;31.58;;;;;;;7.74;100.00;100919.88;5044589;28;20025;-73
2022/12/26 02:38:40;;;;;;;57.60;32.88;;;;;;;7.76;100.00;100928.66;5121130;27;20470;-72
2022/12/26 02:41:20;;;;;;;55.70;32.33;;;;;;;7.72;100.00;100934.72;5125322;27;20015;-74
2022/12/26 02:47:13;;;;;;;54.80;31.90;;;;;;;7.71;100.00;100946.13;5123912;27;20130;-72
2022/12/26 03:17:18;;;;;;;44.47;24.55;;;;;;;7.49;100.00;100940.47;5124265;27;20126;-72
2022/12/26 03:18:18;;;;;;;42.17;23.77;;;;;;;7.52;100.00;100948.44;5120294;27;20120;-72
2022/12/26 03:20:44;;;;;;;42.05;24.33;;;;;;;7.60;100.00;100951.19;5119916;27;20023;-72
2022/12/26 03:23:16;;;;;;;41.17;23.48;;;;;;;7.65;100.00;100952.19;5126665;27;20102;-72
2022/12/26 03:28:31;;;;;;;40.28;22.15;;;;;;;7.64;100.00;100931.97;5124453;27;20580;-72
2022/12/26 03:31:03;;;;;;;39.22;21.77;;;;;;;7.62;100.00;100929.31;5125848;27;20110;-73
2022/12/26 03:36:39;;;;;;;38.60;20.98;;;;;;;7.66;100.00;100928.53;5121067;27;20035;-72
2022/12/26 04:20:08;;;;;;;31.65;17.58;;;;;;;7.52;100.00;100982.63;5122752;27;20410;-72
2022/12/26 04:45:36;;;;;;;27.45;15.07;;;;;;;7.44;100.00;100950.03;5123341;27;20496;-72
2022/12/26 04:50:52;;;;;;;27.60;14.50;;;;;;;7.40;100.00;100932.44;5118924;27;20042;-73
2022/12/26 04:53:19;;;;;;;27.85;14.52;;;;;;;7.42;100.00;100941.22;5118733;27;20470;-72
2022/12/26 04:55:44;;;;;;;27.77;14.38;;;;;;;7.46;100.00;100935.16;5107295;27;20026;-72
2022/12/26 04:58:10;;;;;;;27.63;14.40;;;;;;;7.43;100.00;100932.47;5122275;27;20413;-72
2022/12/26 05:00:35;;;;;;;28.38;14.52;;;;;;;7.40;100.00;100935.06;5124664;27;20019;-72
2022/12/26 05:11:29;;;;;;;28.02;14.00;;;;;;;7.32;100.00;100943.69;5121471;27;20041;-73
2022/12/26 05:13:56;;;;;;;26.83;13.63;;;;;;;7.33;100.00;100952.47;5124147;27;20024;-73
2022/12/26 05:30:25;;;;;;;25.88;12.55;;;;;;;7.28;100.00;100961.97;5120388;28;20091;-73
2022/12/26 05:35:34;;;;;;;26.73;12.43;;;;;;;7.25;100.00;100947.06;5108818;28;20562;-74
2022/12/26 05:38:00;;;;;;;24.45;12.40;;;;;;;7.26;100.00;100950.56;5105172;28;20023;-73
2022/12/26 05:40:26;;;;;;;25.38;11.93;;;;;;;7.22;100.00;100944.34;5122566;28;20156;-73
2022/12/26 05:42:51;;;;;;;25.20;12.00;;;;;;;7.22;100.00;100938.22;5124705;28;20106;-72
2022/12/26 05:45:16;;;;;;;25.20;12.35;;;;;;;7.20;100.00;100930.28;5105501;28;20019;-73
2022/12/26 05:47:42;;;;;;;25.73;11.85;;;;;;;7.15;100.00;100931.97;5128963;27;20029;-73
2022/12/26 05:50:08;;;;;;;25.88;12.15;;;;;;;7.15;100.00;100931.97;5108258;27;20477;-73
2022/12/26 05:52:33;;;;;;;24.52;11.30;;;;;;;7.14;100.00;100920.53;5127603;27;20381;-73
2022/12/26 05:54:59;;;;;;;24.92;11.65;;;;;;;7.11;100.00;100916.97;5127412;27;20027;-70
2022/12/26 05:57:24;;;;;;;24.98;11.20;;;;;;;7.11;100.00;100922.22;5126554;27;20047;-72
2022/12/26 05:59:49;;;;;;;24.55;11.63;;;;;;;7.11;100.00;100930.13;5128866;27;20019;-74
2022/12/26 06:02:15;;;;;;;25.15;11.45;;;;;;;7.13;100.00;100920.50;5125508;27;20031;-74
2022/12/26 06:04:40;;;;;;;24.92;11.07;;;;;;;7.20;100.00;100934.69;5128708;27;20347;-74
2022/12/26 06:07:06;;;;;;;25.13;11.27;;;;;;;7.20;100.00;100938.19;5126195;27;20023;-74
2022/12/26 06:09:31;;;;;;;24.88;11.00;;;;;;;7.25;100.00;100941.81;5127238;27;20118;-73
2022/12/26 06:11:56;;;;;;;24.08;10.48;;;;;;;7.31;100.00;100954.16;5109084;27;20035;-73
2022/12/26 06:14:22;;;;;;;23.92;10.63;;;;;;;7.35;100.00;100965.63;5125881;27;20462;-72
2022/12/26 06:16:47;;;;;;;24.02;10.68;;;;;;;7.39;100.00;100962.22;5128894;27;20041;-73
2022/12/26 06:19:12;;;;;;;22.42;9.65;;;;;;;7.42;100.00;100952.63;5106682;28;20020;-73
2022/12/26 06:21:38;;;;;;;22.40;9.98;;;;;;;7.47;100.00;100965.84;5127754;27;20039;-72
2022/12/26 06:24:04;;;;;;;23.10;9.88;;;;;;;7.45;100.00;100971.09;5126138;27;20085;-72
2022/12/26 06:26:29;;;;;;;22.98;10.02;;;;;;;7.42;100.00;100963.13;5126415;27;20035;-72
2022/12/26 06:28:54;;;;;;;22.35;9.88;;;;;;;7.39;100.00;100967.47;5127452;27;20032;-72
2022/12/26 06:31:22;;;;;;;22.85;10.50;;;;;;;7.42;100.00;100978.94;5125205;27;20098;-73
2022/12/26 06:33:50;;;;;;;22.02;9.63;;;;;;;7.39;100.00;100984.13;5128171;27;20110;-73
2022/12/26 06:36:18;;;;;;;22.15;10.18;;;;;;;7.44;100.00;100986.84;5120841;27;20024;-72
2022/12/26 06:38:44;;;;;;;22.58;9.80;;;;;;;7.42;100.00;100976.28;5120823;27;20027;-73
2022/12/26 06:41:13;;;;;;;21.45;9.82;;;;;;;7.38;100.00;100999.88;5127590;27;20027;-73
2022/12/26 06:43:38;;;;;;;22.13;10.10;;;;;;;7.41;100.00;100989.41;5125215;27;20041;-72
2022/12/26 06:46:06;;;;;;;21.60;9.52;;;;;;;7.38;100.00;100986.72;5127045;27;20024;-72
2022/12/26 06:48:33;;;;;;;21.65;10.02;;;;;;;7.32;100.00;100991.03;5126320;27;20102;-71
2022/12/26 06:51:03;;;;;;;21.30;9.20;;;;;;;7.30;100.00;100983.97;5125732;27;20027;-72
2022/12/26 06:53:28;;;;;;;20.77;9.50;;;;;;;7.28;100.00;100988.28;5126641;27;20031;-72
2022/12/26 06:55:53;;;;;;;20.42;9.05;;;;;;;7.31;100.00;100980.44;5105757;28;20168;-72
2022/12/26 06:58:19;;;;;;;21.38;9.70;;;;;;;7.26;100.00;100975.09;5127762;27;20043;-72
2022/12/26 07:00:44;;;;;;;21.00;9.00;;;;;;;7.26;100.00;100982.13;5124344;27;20028;-72
2022/12/26 07:03:10;;;;;;;21.90;9.70;;;;;;;7.22;100.00;100970.63;5127163;27;20114;-73
2022/12/26 07:05:36;;;;;;;20.25;9.20;;;;;;;7.28;100.00;100991.81;5106801;27;20061;-72
2022/12/26 07:08:02;;;;;;;21.40;9.10;;;;;;;7.25;100.00;100978.63;5107687;27;20032;-72
2022/12/26 07:10:27;;;;;;;20.70;8.82;;;;;;;7.28;100.00;100970.78;5126423;27;20098;-72
2022/12/26 07:12:52;;;;;;;20.35;8.57;;;;;;;7.33;100.00;100973.50;5124634;27;20084;-71
2022/12/26 07:15:18;;;;;;;21.52;9.00;;;;;;;7.29;100.00;100984.81;5127643;27;20019;-72
2022/12/26 07:17:43;;;;;;;20.15;8.52;;;;;;;7.22;100.00;100978.53;5124187;27;20058;-72
2022/12/26 07:20:09;;;;;;;21.13;8.90;;;;;;;7.21;100.00;100979.41;5126842;27;20033;-72
2022/12/26 07:22:35;;;;;;;21.73;8.55;;;;;;;7.19;100.00;100991.63;5124800;27;20028;-72
2022/12/26 07:25:00;;;;;;;22.63;9.18;;;;;;;7.18;100.00;100983.69;5125135;27;20047;-72
2022/12/26 07:27:25;;;;;;;20.52;8.55;;;;;;;7.20;100.00;100977.63;5108094;27;20027;-72
2022/12/26 07:29:51;;;;;;;20.90;8.52;;;;;;;7.20;100.00;100989.88;5123881;27;20057;-72
2022/12/26 07:32:16;;;;;;;20.13;8.50;;;;;;;7.28;100.00;100980.41;5127008;27;20126;-72
2022/12/26 07:34:42;;;;;;;19.80;8.25;;;;;;;7.28;100.00;100975.13;5123966;27;20027;-71
2022/12/26 07:37:07;;;;;;;19.92;8.23;;;;;;;7.25;100.00;100994.38;5126112;27;20050;-70
2022/12/26 07:39:34;;;;;;;19.95;7.85;;;;;;;7.26;100.00;100990.00;5124972;27;20026;-71
2022/12/26 07:42:00;;;;;;;19.77;7.97;;;;;;;7.30;100.00;100999.75;5125067;27;20027;-71
2022/12/26 07:44:27;;;;;;;19.67;7.82;;;;;;;7.28;100.00;101004.06;5125986;27;20015;-71
2022/12/26 07:46:54;;;;;;;20.48;8.07;;;;;;;7.30;100.00;101000.63;5123626;27;20038;-70
2022/12/26 07:49:19;;;;;;;20.35;8.25;;;;;;;7.33;100.00;100999.78;5126966;27;20019;-71
2022/12/26 07:51:44;;;;;;;20.27;8.10;;;;;;;7.28;100.00;100991.81;5123065;27;20031;-71
2022/12/26 07:54:10;;;;;;;20.27;7.90;;;;;;;7.27;100.00;100995.28;5125975;27;20477;-71
2022/12/26 07:56:35;;;;;;;21.15;8.10;;;;;;;7.35;100.00;100991.94;5106138;27;20029;-71
2022/12/26 07:59:01;;;;;;;19.85;7.78;;;;;;;7.35;100.00;101002.44;5124624;27;20054;-71
2022/12/26 08:01:27;;;;;;;19.90;7.63;;;;;;;7.37;100.00;100998.09;5125593;27;20038;-71
2022/12/26 08:03:52;;;;;;;19.25;7.80;;;;;;;7.38;100.00;101016.53;5123551;27;20036;-71
2022/12/26 08:06:18;;;;;;;20.25;7.60;;;;;;;7.31;100.00;101010.28;5126680;27;20030;-71
2022/12/26 08:08:44;;;;;;;19.70;8.00;;;;;;;7.40;100.00;101019.22;5123045;27;20034;-73
2022/12/26 08:11:15;;;;;;;20.85;7.90;;;;;;;7.35;100.00;101010.34;5125556;27;20171;-72
2022/12/26 08:13:40;;;;;;;19.88;7.50;;;;;;;7.37;100.00;101017.41;5123219;27;20028;-73
2022/12/26 08:16:07;;;;;;;19.83;7.30;;;;;;;7.39;100.00;101012.19;5124916;27;20390;-73
2022/12/26 08:18:33;;;;;;;19.58;7.30;;;;;;;7.44;100.00;101003.53;5124447;27;20035;-73
2022/12/26 08:20:59;;;;;;;19.15;7.32;;;;;;;7.42;100.00;101014.88;5123834;27;20537;-72
2022/12/26 08:23:24;;;;;;;19.15;6.85;;;;;;;7.55;100.00;101011.63;5125611;27;20110;-73
2022/12/26 08:25:50;;;;;;;18.15;6.68;;;;;;;7.63;100.00;101007.41;5122437;27;20126;-73
2022/12/26 08:28:15;;;;;;;18.17;6.53;;;;;;;7.66;100.00;101004.81;5118248;27;20037;-72
2022/12/26 08:30:41;;;;;;;19.90;6.85;;;;;;;7.66;100.00;101010.09;5125583;27;20114;-73
2022/12/26 08:33:07;;;;;;;19.50;6.65;;;;;;;7.70;100.00;101031.19;5123376;27;20027;-73
2022/12/26 08:35:37;;;;;;;19.63;6.82;;;;;;;7.77;100.00;101022.56;5105739;27;20398;-72
2022/12/26 08:38:03;;;;;;;18.38;6.55;;;;;;;7.83;100.00;101017.41;5105804;27;20033;-72
2022/12/26 08:40:29;;;;;;;19.08;6.82;;;;;;;7.88;100.00;101021.03;5123780;27;20081;-73
2022/12/26 08:42:55;;;;;;;18.45;6.57;;;;;;;7.98;100.00;101025.59;5124933;27;20059;-72
2022/12/26 08:45:20;;;;;;;18.80;6.60;;;;;;;8.08;100.00;101049.44;5122376;27;20042;-72
2022/12/26 08:47:46;;;;;;;18.02;6.45;;;;;;;8.11;100.00;101044.22;5125654;27;20541;-72
2022/12/26 08:50:11;;;;;;;18.52;6.32;;;;;;;8.14;100.00;101029.38;5104128;27;20535;-73
2022/12/26 08:52:36;;;;;;;18.17;6.10;;;;;;;8.18;100.00;101040.84;5124417;27;20084;-72
2022/12/26 08:55:02;;;;;;;18.05;6.28;;;;;;;8.28;100.00;101050.66;5123751;27;20076;-72
2022/12/26 08:57:28;;;;;;;18.50;5.82;;;;;;;8.31;100.00;101055.09;5123113;27;20050;-72
2022/12/26 08:59:53;;;;;;;16.95;5.63;;;;;;;8.30;100.00;101056.88;5125115;27;20073;-72
2022/12/26 09:02:18;;;;;;;17.58;5.60;;;;;;;8.36;100.00;101051.69;5121963;27;20051;-72
2022/12/26 09:04:44;;;;;;;16.60;5.20;;;;;;;8.36;100.00;101050.81;5125128;27;20355;-71
2022/12/26 09:07:09;;;;;;;17.17;5.05;;;;;;;8.42;100.00;101072.00;5122723;27;20032;-72
2022/12/26 09:09:34;;;;;;;15.05;4.60;;;;;;;8.52;100.00;101063.41;5123833;27;20111;-72
2022/12/26 09:12:00;;;;;;;16.42;4.63;;;;;;;8.60;100.00;101071.44;5123802;27;20037;-73
2022/12/26 09:14:26;;;;;;;14.73;4.30;;;;;;;8.58;100.00;101060.00;5122530;27;20023;-72
2022/12/26 09:16:53;;;;;;;16.05;4.30;;;;;;;8.59;100.00;101071.41;5106697;27;20104;-73
2022/12/26 09:19:19;;;;;;;17.08;4.20;;;;;;;8.72;100.00;101063.72;5082962;28;20391;-72
2022/12/26 09:21:46;;;;;;;13.60;3.88;;;;;;;8.72;100.00;101073.38;5125072;27;20019;-72
2022/12/26 09:24:14;;;;;;;16.30;3.97;;;;;;;8.72;100.00;101076.91;5121864;28;20031;-72
2022/12/26 09:26:40;;;;;;;13.75;3.80;;;;;;;8.79;100.00;101069.09;5124560;28;20038;-72
2022/12/26 09:29:05;;;;;;;12.65;3.70;;;;;;;8.87;100.00;101092.06;5122921;28;20027;-72
2022/12/26 09:31:33;;;;;;;14.73;3.70;;;;;;;8.93;100.00;101086.00;5123035;28;20475;-72
2022/12/26 09:34:06;;;;;;;14.07;3.60;;;;;;;8.88;100.00;101085.03;5123859;28;20042;-72
2022/12/26 09:36:36;;;;;;;14.07;3.47;;;;;;;8.88;100.00;101085.03;5123298;28;20032;-73
2022/12/26 09:39:02;;;;;;;13.98;3.22;;;;;;;8.94;100.00;101108.88;5123397;28;20019;-73
2022/12/26 09:41:58;;;;;;;12.45;3.50;;;;;;;9.04;100.00;101089.69;5122408;28;20414;-72
2022/12/26 09:44:32;;;;;;;13.13;3.30;;;;;;;9.05;100.00;101111.66;5118821;28;20039;-71
2022/12/26 09:47:15;;;;;;;15.32;3.40;;;;;;;9.03;100.00;101109.00;5123867;28;20027;-71
2022/12/26 09:50:00;;;;;;;13.60;3.40;;;;;;;9.06;100.00;101110.81;5124230;28;20065;-70
2022/12/26 09:52:48;;;;;;;16.00;3.70;;;;;;;8.99;100.00;101109.81;5119262;28;20031;-71
2022/12/26 09:55:29;;;;;;;15.20;3.50;;;;;;;8.75;100.00;101117.34;5121781;28;20035;-71
2022/12/26 09:57:59;;;;;;;14.85;3.60;;;;;;;8.58;100.00;101123.22;5118915;28;20024;-72
2022/12/26 10:00:32;;;;;;;13.73;3.75;;;;;;;8.64;100.00;101125.97;5124375;28;20027;-72
2022/12/26 10:02:58;;;;;;;17.73;3.78;;;;;;;8.67;100.00;101117.22;5122171;28;20027;-72
2022/12/26 10:05:38;;;;;;;16.02;3.83;;;;;;;8.77;100.00;101131.44;5124356;28;20024;-71
2022/12/26 10:08:38;;;;;;;13.95;3.58;;;;;;;8.87;100.00;101130.72;5123011;28;20023;-71
2022/12/26 10:11:10;;;;;;;15.65;3.63;;;;;;;8.85;100.00;101128.06;5121059;28;20497;-72
2022/12/26 10:14:02;;;;;;;12.88;3.55;;;;;;;8.94;100.00;101129.06;5122761;28;20358;-71
2022/12/26 10:17:02;;;;;;;12.93;3.60;;;;;;;9.05;100.00;101141.53;5119529;28;20020;-72
2022/12/26 10:19:48;;;;;;;14.60;3.80;;;;;;;9.03;100.00;101145.94;5115665;28;20064;-72
2022/12/26 10:22:33;;;;;;;16.58;3.80;;;;;;;8.98;100.00;101146.72;5102984;28;20027;-71
2022/12/26 10:25:01;;;;;;;17.13;3.92;;;;;;;8.85;100.00;101129.81;5119439;28;20084;-72
2022/12/26 10:27:30;;;;;;;17.63;4.10;;;;;;;8.72;100.00;101145.44;5123537;28;20024;-72
2022/12/26 10:30:04;;;;;;;15.05;4.10;;;;;;;8.58;100.00;101157.50;5121853;28;20482;-72
2022/12/26 10:33:01;;;;;;;13.15;3.97;;;;;;;8.68;100.00;101154.16;5125829;27;20038;-72
2022/12/26 10:35:39;;;;;;;15.27;4.30;;;;;;;8.61;100.00;101188.28;5122058;27;20059;-74
2022/12/26 10:38:30;;;;;;;15.85;4.53;;;;;;;8.44;100.00;101185.31;5126497;27;20030;-73
2022/12/26 10:41:02;;;;;;;12.55;3.50;;;;;;;8.01;100.00;101190.63;5113207;27;20039;-73
2022/12/26 10:43:34;;;;;;;16.10;3.47;;;;;;;7.58;100.00;101201.09;5127326;27;20026;-72
2022/12/26 10:46:30;;;;;;;14.20;3.17;;;;;;;7.53;100.00;101210.66;5125654;27;20470;-73
2022/12/26 10:48:56;;;;;;;16.98;3.00;;;;;;;7.22;100.00;101191.50;5122325;27;20527;-73
2022/12/26 10:51:23;;;;;;;14.88;3.10;;;;;;;7.09;100.00;101221.91;5109413;27;20027;-73
2022/12/26 10:53:50;;;;;;;17.38;3.10;;;;;;;7.12;100.00;101227.25;5124187;27;20066;-73
2022/12/26 10:56:17;;;;;;;15.60;3.00;;;;;;;7.02;100.00;101229.59;5109555;27;20433;-73
2022/12/26 10:58:44;;;;;;;14.15;3.08;;;;;;;6.83;100.00;101212.47;5106431;27;20046;-73
2022/12/26 11:01:27;;;;;;;17.80;3.17;;;;;;;6.97;100.00;101238.28;5108667;27;20048;-73
2022/12/26 11:03:58;;;;;;;17.20;3.30;;;;;;;6.87;100.00;101236.22;5121237;27;20024;-73
2022/12/26 11:06:27;;;;;;;15.90;3.50;;;;;;;6.99;100.00;101246.19;5127577;27;20367;-73
2022/12/26 11:08:53;;;;;;;20.58;3.83;;;;;;;6.86;100.00;101249.31;5124101;27;20374;-73
2022/12/26 11:11:45;;;;;;;15.68;3.28;;;;;;;6.87;100.00;101244.09;5127416;27;20035;-73
2022/12/26 11:14:30;;;;;;;20.63;3.92;;;;;;;6.93;100.00;101256.53;5107159;27;20026;-73
2022/12/26 11:16:58;;;;;;;19.55;4.15;;;;;;;7.06;100.00;101256.00;5121556;27;20432;-73
2022/12/26 11:19:28;;;;;;;21.15;4.20;;;;;;;7.09;100.00;101274.50;5108854;27;20020;-73
2022/12/26 11:21:53;;;;;;;17.52;4.00;;;;;;;7.19;100.00;101270.34;5124090;27;20115;-73
2022/12/26 11:24:19;;;;;;;19.42;3.95;;;;;;;7.19;100.00;101269.44;5127048;27;20122;-71
2022/12/26 11:26:45;;;;;;;19.42;4.32;;;;;;;7.25;100.00;101274.84;5124128;27;20058;-71
2022/12/26 11:29:21;;;;;;;20.30;4.03;;;;;;;7.10;100.00;101273.63;5126272;27;20035;-71
2022/12/26 11:31:57;;;;;;;20.77;4.20;;;;;;;7.22;100.00;101265.16;5119347;27;20024;-72
2022/12/26 11:34:44;;;;;;;17.52;4.05;;;;;;;7.10;100.00;101275.38;5120129;27;20070;-72
2022/12/26 11:37:41;;;;;;;18.95;4.10;;;;;;;7.07;100.00;101280.56;5124458;27;20565;-71
2022/12/26 11:40:17;;;;;;;19.33;4.05;;;;;;;7.19;100.00;101274.72;5124071;27;20028;-71
2022/12/26 11:42:49;;;;;;;19.65;4.55;;;;;;;7.32;100.00;101289.94;5123600;27;20753;-72
2022/12/26 11:45:20;;;;;;;20.77;4.53;;;;;;;7.62;100.00;101292.44;5126394;27;20115;-72
2022/12/26 11:47:46;;;;;;;20.55;3.92;;;;;;;7.85;100.00;101287.69;5123801;27;20026;-72
2022/12/26 11:50:19;;;;;;;18.85;3.92;;;;;;;7.86;100.00;101291.22;5107800;27;20470;-71
2022/12/26 11:52:57;;;;;;;19.25;3.97;;;;;;;8.75;100.00;101301.84;5123264;27;20039;-70
2022/12/26 11:55:28;;;;;;;17.42;3.45;;;;;;;9.59;100.00;101305.06;5119772;27;20043;-71
2022/12/26 11:58:05;;;;;;;19.23;3.58;;;;;;;10.11;100.00;101291.75;5108160;27;20465;-70
2022/12/26 12:00:35;;;;;;;18.92;3.28;;;;;;;10.42;100.00;101306.25;5123285;27;20023;-72
2022/12/26 12:03:02;;;;;;;14.75;3.15;;;;;;;10.20;100.00;101305.06;5124096;27;20051;-72
2022/12/26 12:05:40;;;;;;;19.60;3.22;;;;;;;9.57;100.00;101318.25;5107119;27;20027;-72
2022/12/26 12:08:09;;;;;;;16.02;2.95;;;;;;;9.27;100.00;101312.47;5125019;27;20024;-72
2022/12/26 12:10:51;;;;;;;15.95;3.20;;;;;;;8.55;100.00;101310.28;5124633;27;20027;-72
2022/12/26 12:13:39;;;;;;;16.80;3.10;;;;;;;8.53;100.00;101319.88;5126261;27;20034;-71
2022/12/26 12:16:19;;;;;;;16.73;3.10;;;;;;;8.17;100.00;101315.59;5108235;27;20110;-72
2022/12/26 12:19:06;;;;;;;19.38;3.30;;;;;;;8.26;100.00;101313.16;5107582;27;20042;-72
2022/12/26 12:21:55;;;;;;;18.25;3.40;;;;;;;8.07;100.00;101321.50;5121983;27;20016;-72
2022/12/26 12:24:58;;;;;;;16.23;3.45;;;;;;;7.92;100.00;101314.16;5118902;27;20048;-72
2022/12/26 12:27:49;;;;;;;20.00;3.60;;;;;;;7.90;100.00;101319.38;5119409;27;20107;-72
2022/12/26 12:30:37;;;;;;;15.50;3.50;;;;;;;8.12;100.00;101310.22;5122430;27;20088;-72
2022/12/26 12:33:22;;;;;;;17.80;3.20;;;;;;;7.95;100.00;101324.75;5121609;27;20031;-72
2022/12/26 12:36:05;;;;;;;16.58;3.30;;;;;;;7.84;100.00;101332.41;5122333;27;20038;-72
2022/12/26 12:39:01;;;;;;;17.50;3.28;;;;;;;7.57;100.00;101335.25;5121052;27;20026;-72
2022/12/26 12:41:45;;;;;;;11.68;2.50;;;;;;;7.28;100.00;101323.19;5119318;27;20046;-72
2022/12/26 12:44:19;;;;;;;9.95;2.60;;;;;;;7.09;100.00;101337.59;5123151;27;20505;-71
2022/12/26 12:46:51;;;;;;;14.98;2.60;;;;;;;7.03;100.00;101341.78;5125340;27;20027;-72
2022/12/26 12:49:17;;;;;;;14.32;3.00;;;;;;;6.96;100.00;101344.25;5122416;27;20441;-72
2022/12/26 12:51:51;;;;;;;13.88;2.70;;;;;;;7.06;100.00;101352.38;5124759;27;20069;-72
2022/12/26 12:54:19;;;;;;;15.00;2.70;;;;;;;7.05;100.00;101361.09;5121294;27;20116;-71
2022/12/26 12:57:06;;;;;;;13.90;2.50;;;;;;;7.22;100.00;101365.06;5124950;27;20023;-69
2022/12/26 13:00:02;;;;;;;14.98;2.63;;;;;;;7.03;100.00;101374.22;5120837;27;20024;-72
2022/12/26 13:02:36;;;;;;;13.52;2.70;;;;;;;6.88;100.00;101373.81;5119805;27;20031;-72
2022/12/26 13:05:29;;;;;;;13.30;2.70;;;;;;;6.81;100.00;101370.09;5123992;27;20155;-71
2022/12/26 13:08:03;;;;;;;15.52;2.85;;;;;;;6.94;100.00;101374.84;5106456;27;20036;-72
2022/12/26 13:10:34;;;;;;;11.15;2.60;;;;;;;7.08;100.00;101371.72;5124300;27;20015;-71
2022/12/26 13:13:18;;;;;;;15.77;2.75;;;;;;;7.12;100.00;101348.19;5122732;27;20062;-72
2022/12/26 13:15:48;;;;;;;12.20;2.67;;;;;;;7.31;100.00;101362.72;5122408;27;20030;-71
2022/12/26 13:18:21;;;;;;;11.80;2.40;;;;;;;7.41;100.00;101371.72;5124634;27;20031;-72
2022/12/26 13:20:49;;;;;;;10.75;2.60;;;;;;;7.45;100.00;101359.53;5121624;27;20035;-71
2022/12/26 13:26:26;;;;;;;11.75;2.60;;;;;;;7.51;100.00;101372.84;5123812;27;20079;-71
2022/12/26 13:29:01;;;;;;;12.40;2.60;;;;;;;7.42;100.00;101375.25;5117788;28;20367;-71
2022/12/26 13:31:35;;;;;;;13.43;2.80;;;;;;;7.18;100.00;101383.38;5119146;28;20485;-70
2022/12/26 13:34:02;;;;;;;15.20;3.15;;;;;;;7.02;100.00;101387.31;5124084;28;20114;-72
2022/12/26 13:36:41;;;;;;;13.07;2.75;;;;;;;6.71;100.00;101382.09;5122225;28;20347;-72
2022/12/26 13:39:06;;;;;;;13.23;2.80;;;;;;;6.58;100.00;101380.88;5104657;28;20474;-72
2022/12/26 13:44:18;;;;;;;11.55;2.50;;;;;;;6.72;100.00;101389.13;5117243;28;20054;-71
2022/12/26 13:46:47;;;;;;;10.88;2.30;;;;;;;6.73;100.00;101390.91;5106056;28;20465;-71